createdAt,value
2022-12-25T00:01:49.643Z,4.50
2022-12-25T00:06:54.210Z,5.40
2022-12-25T00:11:57.610Z,5.03
2022-12-25T00:17:00.916Z,5.10
2022-12-25T00:22:06.949Z,6.00
2022-12-25T00:27:10.327Z,5.78
2022-12-25T00:32:15.755Z,5.50
2022-12-25T00:37:22.674Z,5.35
2022-12-25T00:42:27.033Z,5.30
2022-12-25T00:47:31.326Z,5.25
2022-12-25T00:52:36.536Z,5.40
2022-12-25T00:57:40.252Z,5.72
2022-12-25T01:02:43.571Z,6.22
2022-12-25T01:07:48.242Z,6.25
2022-12-25T01:12:51.720Z,5.70
2022-12-25T01:17:55.700Z,5.70
2022-12-25T01:23:01.751Z,5.03
2022-12-25T01:28:05.929Z,5.03
2022-12-25T01:33:08.950Z,5.07
2022-12-25T01:38:13.584Z,5.00
2022-12-25T01:43:22.714Z,5.53
2022-12-25T01:48:31.252Z,4.63
2022-12-25T01:53:36.618Z,5.22
2022-12-25T01:58:39.869Z,4.85
2022-12-25T02:03:43.611Z,4.60
2022-12-25T02:08:48.332Z,5.15
2022-12-25T02:13:51.459Z,6.72
2022-12-25T02:18:58.071Z,5.82
2022-12-25T02:24:14.459Z,5.38
2022-12-25T02:29:20.065Z,5.35
2022-12-25T02:34:26.454Z,12.27
2022-12-25T02:39:50.950Z,11.02
2022-12-25T02:45:13.223Z,7.72
2022-12-25T02:50:35.180Z,6.95
2022-12-25T02:55:58.407Z,9.95
2022-12-25T03:01:23.078Z,21.98
2022-12-25T03:06:44.481Z,12.65
2022-12-25T03:11:51.035Z,11.90
2022-12-25T03:16:57.301Z,8.00
2022-12-25T03:22:20.636Z,7.80
2022-12-25T03:27:24.148Z,7.60
2022-12-25T03:32:31.951Z,5.97
2022-12-25T03:38:01.664Z,5.95
2022-12-25T03:43:26.019Z,5.63
2022-12-25T03:48:48.509Z,6.40
2022-12-25T03:54:11.448Z,4.90
2022-12-25T03:59:32.133Z,5.32
2022-12-25T04:04:54.175Z,13.60
2022-12-25T04:10:16.288Z,4.03
2022-12-25T04:15:37.321Z,7.68
2022-12-25T04:20:59.699Z,6.03
2022-12-25T04:26:21.706Z,4.53
2022-12-25T04:31:42.725Z,4.78
2022-12-25T04:36:47.819Z,4.63
2022-12-25T04:41:51.125Z,6.05
2022-12-25T04:46:58.018Z,5.47
2022-12-25T04:52:03.153Z,4.97
2022-12-25T04:57:06.832Z,18.73
2022-12-25T05:02:11.268Z,7.68
2022-12-25T05:07:16.173Z,5.80
2022-12-25T05:12:21.987Z,5.25
2022-12-25T05:17:25.663Z,4.63
2022-12-25T05:22:30.264Z,4.40
2022-12-25T05:27:34.200Z,3.63
2022-12-25T05:32:37.639Z,4.00
2022-12-25T05:37:43.773Z,4.28
2022-12-25T05:42:47.366Z,5.70
2022-12-25T05:47:50.546Z,4.05
2022-12-25T05:52:55.848Z,4.95
2022-12-25T05:58:00.034Z,4.40
2022-12-25T06:03:03.843Z,3.92
2022-12-25T06:08:09.321Z,3.83
2022-12-25T06:13:13.619Z,4.50
2022-12-25T06:18:16.783Z,4.50
2022-12-25T06:23:22.467Z,4.55
2022-12-25T06:28:25.746Z,4.63
2022-12-25T06:33:28.937Z,4.53
2022-12-25T06:38:33.661Z,4.40
2022-12-25T06:43:37.434Z,4.57
2022-12-25T06:48:41.103Z,4.30
2022-12-25T06:53:45.740Z,4.28
2022-12-25T06:58:49.925Z,4.63
2022-12-25T07:03:54.460Z,4.97
2022-12-25T07:09:00.572Z,4.63
2022-12-25T07:14:04.244Z,4.43
2022-12-25T07:19:07.534Z,4.07
2022-12-25T07:24:12.893Z,5.03
2022-12-25T07:29:17.573Z,5.80
2022-12-25T07:34:22.651Z,5.55
2022-12-25T07:39:28.260Z,5.25
2022-12-25T07:44:32.037Z,4.97
2022-12-25T07:49:36.696Z,5.03
2022-12-25T07:54:42.759Z,4.88
2022-12-25T07:59:46.398Z,4.88
2022-12-25T08:04:49.701Z,4.40
2022-12-25T08:09:54.712Z,5.15
2022-12-25T08:14:57.897Z,5.28
2022-12-25T08:20:01.426Z,4.93
2022-12-25T08:25:07.222Z,4.82
2022-12-25T08:30:11.568Z,5.28
2022-12-25T08:35:15.310Z,5.50
2022-12-25T08:40:20.613Z,5.70
2022-12-25T08:45:24.995Z,5.90
2022-12-25T08:50:30.599Z,5.82
2022-12-25T08:55:36.347Z,5.85
2022-12-25T09:00:42.214Z,7.00
2022-12-25T09:05:48.001Z,7.43
2022-12-25T09:10:53.439Z,9.48
2022-12-25T09:15:57.662Z,10.80
2022-12-25T09:21:01.364Z,8.43
2022-12-25T09:26:07.878Z,8.73
2022-12-25T09:31:11.993Z,9.15
2022-12-25T09:36:15.724Z,8.80
2022-12-25T09:41:30.389Z,7.70
2022-12-25T09:46:38.574Z,7.93
2022-12-25T09:51:42.040Z,7.28
2022-12-25T09:56:48.840Z,7.25
2022-12-25T10:02:00.056Z,8.43
2022-12-25T10:07:13.973Z,7.47
2022-12-25T10:12:31.826Z,8.32
2022-12-25T10:17:41.465Z,8.15
2022-12-25T10:22:46.307Z,8.90
2022-12-25T10:27:52.592Z,8.55
2022-12-25T10:32:57.556Z,8.15
2022-12-25T10:38:02.201Z,8.25
2022-12-25T10:43:09.870Z,7.38
2022-12-25T10:48:18.534Z,7.57
2022-12-25T10:53:23.693Z,7.65
2022-12-25T10:58:29.298Z,7.50
2022-12-25T11:03:33.768Z,6.47
2022-12-25T11:08:41.214Z,6.55
2022-12-25T11:13:49.540Z,6.20
2022-12-25T11:18:54.378Z,6.13
2022-12-25T11:24:03.688Z,5.10
2022-12-25T11:29:13.761Z,6.13
2022-12-25T11:34:30.071Z,6.20
2022-12-25T11:39:35.421Z,4.40
2022-12-25T11:44:43.553Z,3.70
2022-12-25T11:49:52.144Z,4.80
2022-12-25T11:55:02.326Z,4.07
2022-12-25T12:00:12.106Z,3.83
2022-12-25T12:05:19.759Z,3.28
2022-12-25T12:10:31.503Z,3.95
2022-12-25T12:15:43.379Z,4.10
2022-12-25T12:20:58.121Z,3.85
2022-12-25T12:26:03.185Z,4.65
2022-12-25T12:31:10.000Z,3.97
2022-12-25T12:36:14.446Z,4.63
2022-12-25T12:41:19.552Z,4.30
2022-12-25T12:46:30.902Z,3.78
2022-12-25T12:51:36.345Z,5.70
2022-12-25T12:56:40.206Z,4.00
2022-12-25T13:01:53.137Z,4.53
2022-12-25T13:07:00.903Z,3.38
2022-12-25T13:12:06.709Z,4.18
2022-12-25T13:17:13.409Z,5.20
2022-12-25T13:22:26.455Z,3.97
2022-12-25T13:27:33.051Z,4.22
2022-12-25T13:32:39.628Z,4.03
2022-12-25T13:37:42.911Z,4.57
2022-12-25T13:42:47.333Z,4.68
2022-12-25T13:47:56.947Z,4.22
2022-12-25T13:53:12.483Z,4.32
2022-12-25T13:58:19.828Z,4.60
2022-12-25T14:03:25.877Z,4.18
2022-12-25T14:08:31.861Z,4.15
2022-12-25T14:13:38.071Z,3.95
2022-12-25T14:18:52.621Z,4.38
2022-12-25T14:23:55.770Z,4.55
2022-12-25T14:29:12.663Z,4.18
2022-12-25T14:34:25.020Z,4.28
2022-12-25T14:39:32.693Z,4.78
2022-12-25T14:44:38.919Z,4.70
2022-12-25T14:49:44.754Z,4.70
2022-12-25T14:54:50.301Z,4.75
2022-12-25T15:00:11.710Z,4.43
2022-12-25T15:05:27.575Z,5.05
2022-12-25T15:15:59.998Z,4.90
2022-12-25T15:21:05.913Z,4.73
2022-12-25T15:26:11.227Z,4.57
2022-12-25T15:31:22.053Z,4.20
2022-12-25T15:36:28.228Z,4.13
2022-12-25T15:41:50.740Z,5.07
2022-12-25T15:46:54.014Z,5.55
2022-12-25T15:52:01.235Z,5.90
2022-12-25T15:57:05.287Z,5.68
2022-12-25T16:02:14.549Z,6.32
2022-12-25T16:07:20.976Z,6.22
2022-12-25T16:12:25.522Z,5.70
2022-12-25T16:17:29.675Z,5.28
2022-12-25T16:22:40.311Z,4.85
2022-12-25T16:27:44.493Z,4.55
2022-12-25T16:32:50.610Z,4.90
2022-12-25T16:37:55.209Z,5.03
2022-12-25T16:42:59.788Z,5.30
2022-12-25T16:48:03.164Z,5.72
2022-12-25T16:53:08.770Z,5.55
2022-12-25T16:58:12.161Z,5.72
2022-12-25T17:03:16.110Z,5.80
2022-12-25T17:08:20.917Z,5.85
2022-12-25T17:13:24.752Z,5.80
2022-12-25T17:18:28.197Z,5.43
2022-12-25T17:23:34.302Z,6.07
2022-12-25T17:28:37.976Z,5.57
2022-12-25T17:33:42.130Z,5.88
2022-12-25T17:38:48.587Z,5.85
2022-12-25T17:43:52.439Z,5.20
2022-12-25T17:48:56.420Z,5.28
2022-12-25T17:54:03.488Z,5.47
2022-12-25T17:59:09.864Z,6.13
2022-12-25T18:04:13.150Z,5.70
2022-12-25T18:09:19.627Z,5.80
2022-12-25T18:14:24.103Z,5.95
2022-12-25T18:19:29.311Z,4.85
2022-12-25T18:24:33.904Z,4.88
2022-12-25T18:29:37.603Z,5.43
2022-12-25T18:34:41.578Z,5.82
2022-12-25T18:39:46.983Z,5.65
2022-12-25T18:44:50.767Z,4.57
2022-12-25T18:49:54.486Z,4.43
2022-12-25T18:55:00.214Z,4.38
2022-12-25T19:00:04.349Z,4.22
2022-12-25T19:05:08.392Z,4.25
2022-12-25T19:10:15.261Z,3.78
2022-12-25T19:15:18.510Z,4.30
2022-12-25T19:20:21.932Z,3.40
2022-12-25T19:25:28.221Z,3.92
2022-12-25T19:30:32.074Z,4.55
2022-12-25T19:35:37.025Z,3.92
2022-12-25T19:41:01.449Z,4.70
2022-12-25T19:46:04.945Z,4.50
2022-12-25T19:51:18.824Z,3.55
2022-12-25T19:56:23.772Z,3.17
2022-12-25T20:01:30.675Z,4.47
2022-12-25T20:06:35.751Z,3.38
2022-12-25T20:11:40.885Z,4.32
2022-12-25T20:16:44.677Z,4.43
2022-12-25T20:22:00.360Z,4.70
2022-12-25T20:27:08.372Z,4.95
2022-12-25T20:32:13.550Z,3.90
2022-12-25T20:37:17.747Z,3.20
2022-12-25T20:42:24.094Z,2.90
2022-12-25T20:47:28.034Z,3.15
2022-12-25T20:52:34.420Z,3.05
2022-12-25T20:57:39.427Z,3.40
2022-12-25T21:02:43.991Z,3.40
2022-12-25T21:07:47.998Z,3.30
2022-12-25T21:12:53.790Z,3.30
2022-12-25T21:18:03.685Z,2.85
2022-12-25T21:28:13.120Z,3.35
2022-12-25T21:33:34.619Z,3.22
2022-12-25T21:38:37.821Z,3.42
2022-12-25T21:43:43.948Z,2.67
2022-12-25T21:48:48.172Z,3.17
2022-12-25T21:53:53.258Z,3.13
2022-12-25T21:59:00.365Z,3.03
2022-12-25T22:04:06.005Z,3.10
2022-12-25T22:09:10.653Z,3.45
2022-12-25T22:14:52.072Z,2.97
2022-12-25T22:19:58.377Z,2.90
2022-12-25T22:25:04.385Z,3.08
2022-12-25T22:30:12.087Z,2.95
2022-12-25T22:35:16.175Z,2.65
2022-12-25T22:40:20.602Z,1.83
2022-12-25T22:45:32.030Z,2.60
2022-12-25T22:50:35.379Z,3.03
2022-12-25T22:55:39.788Z,2.97
2022-12-25T23:00:46.809Z,2.67
2022-12-25T23:05:56.102Z,2.85
2022-12-25T23:11:04.543Z,2.58
2022-12-25T23:16:13.271Z,2.60
2022-12-25T23:26:40.290Z,2.47
2022-12-25T23:31:44.976Z,2.55
2022-12-25T23:36:48.821Z,2.53
2022-12-25T23:41:52.521Z,3.00
2022-12-25T23:46:57.977Z,2.58
2022-12-25T23:52:04.469Z,2.90
2022-12-25T23:57:08.133Z,3.00
